Time;durP1;ratioP1;P1;durP2;ratioP2;P2;SDS_P1;SDS_P2;PMS_P1;PMS_P2;Temp;Humidity;BMP_temperature;BMP_pressure;BME280_temperature;BME280_humidity;BME280_pressure;Samples;Min_cycle;Max_cycle;Signal;HPM_P1;HPM_P2
2023/08/27 00:00:34;;;;;;;5.60;4.37;;;;;;;-145.18;100.00;46635.00;5032615;28;20094;-64
2023/08/27 00:02:59;;;;;;;7.43;4.40;;;;;;;-145.18;100.00;46633.06;5032814;28;20417;-64
2023/08/27 00:05:25;;;;;;;6.47;4.40;;;;;;;-145.18;100.00;46636.94;5032695;28;20021;-64
2023/08/27 00:07:50;;;;;;;8.80;4.87;;;;;;;-145.18;100.00;46635.00;5032787;28;20033;-65
2023/08/27 00:10:16;;;;;;;6.73;4.27;;;;;;;-145.18;100.00;46633.06;5033081;28;20036;-65
2023/08/27 00:12:41;;;;;;;7.47;4.77;;;;;;;-145.18;100.00;46636.94;5032495;28;20436;-64
2023/08/27 00:15:07;;;;;;;9.07;4.53;;;;;;;-145.18;100.00;46636.94;5031129;28;20083;-64
2023/08/27 00:17:33;;;;;;;6.40;4.37;;;;;;;-145.18;100.00;46636.94;5031435;28;20040;-64
2023/08/27 00:19:58;;;;;;;7.87;5.77;;;;;;;-145.18;100.00;46635.00;5032273;28;20025;-64
2023/08/27 00:22:24;;;;;;;7.20;4.20;;;;;;;-145.18;100.00;46633.06;5032879;28;20370;-64
2023/08/27 00:24:49;;;;;;;4.90;4.17;;;;;;;-145.18;100.00;46635.00;5032473;28;20545;-64
2023/08/27 00:27:15;;;;;;;7.57;4.53;;;;;;;-145.18;100.00;46635.00;5032580;28;20037;-64
2023/08/27 00:29:40;;;;;;;5.57;4.20;;;;;;;-145.18;100.00;46636.94;5030964;28;20037;-65
2023/08/27 00:32:06;;;;;;;6.90;4.57;;;;;;;-145.18;100.00;46633.06;5032808;28;20025;-64
2023/08/27 00:34:34;;;;;;;4.57;4.07;;;;;;;-145.18;100.00;46636.94;5032379;28;20575;-65
2023/08/27 00:37:01;;;;;;;6.17;4.23;;;;;;;-145.18;100.00;46631.09;5029171;28;20030;-64
2023/08/27 00:39:29;;;;;;;5.87;4.27;;;;;;;-145.18;100.00;46631.09;5032500;28;20108;-64
2023/08/27 00:41:55;;;;;;;6.93;3.93;;;;;;;-145.18;100.00;46635.00;5032532;28;20036;-64
2023/08/27 00:44:21;;;;;;;6.33;4.50;;;;;;;-145.18;100.00;46638.91;5031122;28;20381;-65
2023/08/27 00:46:50;;;;;;;6.83;4.10;;;;;;;-145.18;100.00;46636.94;5032097;28;20032;-64
2023/08/27 00:49:16;;;;;;;11.00;4.60;;;;;;;-145.18;100.00;46635.00;5032312;28;20381;-65
2023/08/27 00:51:46;;;;;;;5.37;3.97;;;;;;;-145.18;100.00;46660.41;5031903;28;20043;-64
2023/08/27 00:54:12;;;;;;;5.07;3.53;;;;;;;-145.18;100.00;46636.94;5019386;28;20033;-64
2023/08/27 00:56:44;;;;;;;9.00;4.00;;;;;;;-145.18;100.00;46638.91;5031599;28;20051;-64
2023/08/27 00:59:11;;;;;;;9.20;4.00;;;;;;;-145.18;100.00;46636.94;5032291;28;20033;-70
2023/08/27 01:01:38;;;;;;;5.63;4.00;;;;;;;-145.18;100.00;46638.91;5031748;28;20029;-71
2023/08/27 01:04:04;;;;;;;5.33;4.00;;;;;;;-145.18;100.00;46636.94;5031710;28;20032;-71
2023/08/27 01:06:30;;;;;;;7.37;3.93;;;;;;;-145.18;100.00;46636.94;5031664;28;20045;-71
2023/08/27 01:09:06;;;;;;;6.23;4.33;;;;;;;-145.18;100.00;46636.94;5031522;28;20045;-71
2023/08/27 01:12:00;;;;;;;7.57;3.53;;;;;;;-145.18;100.00;46638.91;5031543;28;20029;-71
2023/08/27 01:14:29;;;;;;;8.17;4.70;;;;;;;-145.18;100.00;46638.91;5030947;28;20060;-71
2023/08/27 01:16:58;;;;;;;8.43;3.87;;;;;;;-145.18;100.00;46636.94;5031745;28;20025;-71
2023/08/27 01:19:25;;;;;;;5.20;4.03;;;;;;;-145.18;100.00;46636.94;5026299;28;20553;-71
2023/08/27 01:21:50;;;;;;;5.60;4.50;;;;;;;-145.18;100.00;46640.88;5031710;28;20042;-71
2023/08/27 01:24:15;;;;;;;5.70;4.00;;;;;;;-145.18;100.00;46638.91;5031900;28;20029;-71
2023/08/27 01:27:03;;;;;;;5.97;4.33;;;;;;;-145.18;100.00;46638.91;5031707;28;20092;-71
2023/08/27 01:30:09;;;;;;;5.50;4.33;;;;;;;-145.18;100.00;46638.91;5031445;28;20472;-71
2023/08/27 01:33:05;;;;;;;6.40;4.00;;;;;;;-145.18;100.00;46640.88;5034505;28;20090;-71
2023/08/27 01:35:32;;;;;;;4.65;4.07;;;;;;;-145.18;100.00;46638.91;5035241;28;20133;-71
2023/08/27 01:37:58;;;;;;;5.30;3.63;;;;;;;-145.18;100.00;46638.91;5035383;28;20030;-71
2023/08/27 01:40:27;;;;;;;7.20;3.83;;;;;;;-145.18;100.00;46638.91;5035338;28;20044;-71
2023/08/27 01:42:52;;;;;;;6.67;3.87;;;;;;;-145.18;100.00;46636.94;5023368;28;20092;-71
2023/08/27 01:45:18;;;;;;;6.90;4.17;;;;;;;-145.18;100.00;46640.88;5035826;28;20497;-71
2023/08/27 01:47:44;;;;;;;7.07;4.03;;;;;;;-145.18;100.00;46635.00;5034937;28;20532;-71
2023/08/27 01:50:09;;;;;;;13.80;4.47;;;;;;;-145.18;100.00;46636.94;5035215;28;20087;-71
2023/08/27 01:52:35;;;;;;;10.37;4.10;;;;;;;-145.18;100.00;46638.91;5035276;28;20072;-71
2023/08/27 01:55:03;;;;;;;6.70;4.27;;;;;;;-145.18;100.00;46636.94;5035009;28;20029;-71
2023/08/27 01:57:28;;;;;;;6.10;4.07;;;;;;;-145.18;100.00;46640.88;5035046;28;20057;-71
2023/08/27 01:59:54;;;;;;;6.37;4.37;;;;;;;-145.18;100.00;46636.94;5035269;28;20044;-71
2023/08/27 02:02:20;;;;;;;5.87;4.33;;;;;;;-145.18;100.00;46638.91;5034959;28;20489;-71
2023/08/27 02:04:45;;;;;;;10.07;4.43;;;;;;;-145.18;100.00;46638.91;5033947;28;20119;-72
2023/08/27 02:07:10;;;;;;;5.87;3.90;;;;;;;-145.18;100.00;46633.06;5034946;28;20033;-71
2023/08/27 02:09:36;;;;;;;5.37;3.70;;;;;;;-145.18;100.00;46636.94;5035116;28;20048;-64
2023/08/27 02:12:05;;;;;;;8.63;4.27;;;;;;;-145.18;100.00;46636.94;5034634;28;20037;-65
2023/08/27 02:14:31;;;;;;;7.03;4.50;;;;;;;-145.18;100.00;46638.91;5035199;28;20169;-66
2023/08/27 02:16:56;;;;;;;7.73;4.07;;;;;;;-145.18;100.00;46640.88;5034728;28;20501;-64
2023/08/27 02:19:22;;;;;;;10.63;4.17;;;;;;;-145.18;100.00;46642.81;5034724;28;20037;-64
2023/08/27 02:21:47;;;;;;;9.50;4.27;;;;;;;-145.18;100.00;46636.94;5035015;28;20489;-64
2023/08/27 02:24:13;;;;;;;6.83;4.33;;;;;;;-145.18;100.00;46638.91;5034915;28;20049;-65
2023/08/27 02:26:38;;;;;;;6.40;4.27;;;;;;;-145.18;100.00;46640.88;5034884;28;20030;-65
2023/08/27 02:29:03;;;;;;;8.67;4.67;;;;;;;-145.18;100.00;46633.06;5034153;28;20116;-64
2023/08/27 02:31:29;;;;;;;7.23;4.80;;;;;;;-145.18;100.00;46636.94;5034899;28;20159;-65
2023/08/27 02:33:54;;;;;;;5.80;4.63;;;;;;;-145.18;100.00;46633.06;5034414;28;20079;-64
2023/08/27 02:36:21;;;;;;;9.87;4.83;;;;;;;-145.18;100.00;46636.94;5033346;28;20037;-64
2023/08/27 02:38:46;;;;;;;5.70;4.60;;;;;;;-145.18;100.00;46638.91;5034360;28;20176;-64
2023/08/27 02:41:13;;;;;;;10.47;5.13;;;;;;;-145.18;100.00;46635.00;5033591;28;20559;-65
2023/08/27 02:43:39;;;;;;;10.60;4.97;;;;;;;-145.18;100.00;46638.91;5033386;28;20028;-64
2023/08/27 02:46:04;;;;;;;10.23;4.90;;;;;;;-145.18;100.00;46633.06;5034663;28;20033;-65
2023/08/27 02:48:30;;;;;;;8.73;5.67;;;;;;;-145.18;100.00;46635.00;5033273;28;20474;-65
2023/08/27 02:50:55;;;;;;;9.47;5.17;;;;;;;-145.18;100.00;46633.06;5034850;28;20442;-65
2023/08/27 02:53:20;;;;;;;13.80;5.67;;;;;;;-145.18;100.00;46640.88;5032796;28;20478;-65
2023/08/27 02:55:46;;;;;;;12.10;5.27;;;;;;;-145.18;100.00;46633.06;5034221;28;20091;-64
2023/08/27 02:58:11;;;;;;;12.97;6.13;;;;;;;-145.18;100.00;46660.41;5033775;28;20057;-64
2023/08/27 03:00:40;;;;;;;9.50;5.40;;;;;;;-145.18;100.00;46640.88;5032791;28;20037;-64
2023/08/27 03:03:07;;;;;;;9.87;4.57;;;;;;;-145.18;100.00;46635.00;5034217;28;20167;-65
2023/08/27 03:05:33;;;;;;;10.27;5.43;;;;;;;-145.18;100.00;46631.09;5032915;28;20095;-64
2023/08/27 03:07:58;;;;;;;10.07;5.07;;;;;;;-145.18;100.00;46633.06;5034138;28;20033;-64
2023/08/27 03:10:24;;;;;;;8.50;5.20;;;;;;;-145.18;100.00;46635.00;5034178;28;20389;-64
2023/08/27 03:12:49;;;;;;;7.30;4.77;;;;;;;-145.18;100.00;46635.00;5033847;28;20029;-64
2023/08/27 03:15:14;;;;;;;8.80;5.33;;;;;;;-145.18;100.00;46635.00;5032573;28;20528;-64
2023/08/27 03:17:40;;;;;;;11.40;5.80;;;;;;;-145.18;100.00;46631.09;5033393;28;20033;-64
2023/08/27 03:20:06;;;;;;;7.30;5.17;;;;;;;-145.18;100.00;46660.41;5032642;28;20099;-73
2023/08/27 03:22:31;;;;;;;10.13;5.20;;;;;;;-145.18;100.00;46633.06;5033532;28;20079;-73
2023/08/27 03:25:00;;;;;;;9.60;5.10;;;;;;;-145.18;100.00;46631.09;5033974;28;20431;-73
2023/08/27 03:27:25;;;;;;;6.97;4.97;;;;;;;-145.18;100.00;46631.09;5033707;28;20037;-73
2023/08/27 03:29:51;;;;;;;10.73;5.50;;;;;;;-145.18;100.00;46631.09;5033508;28;20519;-73
2023/08/27 03:32:16;;;;;;;10.70;4.80;;;;;;;-145.18;100.00;46631.09;5033532;28;20025;-73
2023/08/27 03:34:41;;;;;;;8.50;5.20;;;;;;;-145.18;100.00;46631.09;5033155;28;20374;-73
2023/08/27 03:37:07;;;;;;;6.67;4.60;;;;;;;-145.18;100.00;46635.00;5031851;28;20037;-73
2023/08/27 03:39:32;;;;;;;8.33;4.63;;;;;;;-145.18;100.00;46631.09;5033686;28;20473;-73
2023/08/27 03:41:57;;;;;;;7.80;4.60;;;;;;;-145.18;100.00;46660.41;5031434;28;20536;-73
2023/08/27 03:44:24;;;;;;;13.10;4.60;;;;;;;-145.18;100.00;46660.41;5044696;28;20029;-73
2023/08/27 03:46:49;;;;;;;9.37;5.10;;;;;;;-145.18;100.00;46631.09;5033303;28;20067;-73
2023/08/27 03:49:15;;;;;;;7.13;4.33;;;;;;;-145.18;100.00;46631.09;5031901;28;20106;-73
2023/08/27 03:51:40;;;;;;;9.00;4.40;;;;;;;-145.18;100.00;46660.41;5032868;28;20408;-73
2023/08/27 03:54:07;;;;;;;6.40;4.87;;;;;;;-145.18;100.00;46633.06;5033033;28;20108;-73
2023/08/27 03:56:32;;;;;;;9.37;4.63;;;;;;;-145.18;100.00;46631.09;5031735;28;20500;-73
2023/08/27 03:58:57;;;;;;;7.77;4.23;;;;;;;-145.18;100.00;46633.06;5032908;28;20127;-72
2023/08/27 04:01:23;;;;;;;7.27;5.00;;;;;;;-145.18;100.00;46633.06;5033115;28;20044;-73
2023/08/27 04:03:48;;;;;;;6.63;4.57;;;;;;;-145.18;100.00;46635.00;5031592;28;20041;-73
2023/08/27 04:06:13;;;;;;;9.37;4.43;;;;;;;-145.18;100.00;46633.06;5031476;28;20048;-73
2023/08/27 04:08:39;;;;;;;8.53;4.57;;;;;;;-145.18;100.00;46633.06;5032500;28;20045;-73
2023/08/27 04:11:04;;;;;;;6.97;4.40;;;;;;;-145.18;100.00;46633.06;5032582;28;20413;-73
2023/08/27 04:13:30;;;;;;;5.87;3.93;;;;;;;-145.18;100.00;46631.09;5032961;28;20120;-73
2023/08/27 04:16:00;;;;;;;6.37;4.40;;;;;;;-145.18;100.00;46633.06;5030617;28;20505;-73
2023/08/27 04:18:27;;;;;;;8.53;4.20;;;;;;;-145.18;100.00;46633.06;5029058;28;20505;-73
2023/08/27 04:20:52;;;;;;;9.10;4.73;;;;;;;-145.18;100.00;46636.94;5032073;28;20116;-73
2023/08/27 04:23:18;;;;;;;6.03;4.20;;;;;;;-145.18;100.00;46633.06;5036188;28;20100;-73
2023/08/27 04:25:43;;;;;;;6.50;4.50;;;;;;;-145.18;100.00;46631.09;5008473;28;20037;-73
2023/08/27 04:28:09;;;;;;;7.60;3.70;;;;;;;-145.18;100.00;46633.06;5027482;28;20033;-73
2023/08/27 04:30:35;;;;;;;6.63;4.23;;;;;;;-145.18;100.00;46633.06;5031542;28;20026;-64
2023/08/27 04:33:00;;;;;;;6.63;4.03;;;;;;;-145.18;100.00;46636.94;5032295;28;20033;-64
2023/08/27 04:35:25;;;;;;;13.57;4.53;;;;;;;-145.18;100.00;46660.41;5041381;28;20040;-64
2023/08/27 04:37:51;;;;;;;6.37;4.00;;;;;;;-145.18;100.00;46636.94;5028805;28;20039;-64
2023/08/27 04:40:16;;;;;;;6.20;4.53;;;;;;;-145.18;100.00;46660.41;5031995;28;20026;-64
2023/08/27 04:42:42;;;;;;;6.57;3.63;;;;;;;-145.18;100.00;46629.13;5020496;28;20030;-64
2023/08/27 04:45:09;;;;;;;8.63;4.17;;;;;;;-145.18;100.00;46629.13;5029406;28;20036;-64
2023/08/27 04:47:34;;;;;;;6.00;4.17;;;;;;;-145.18;100.00;46635.00;5044365;28;20059;-64
2023/08/27 04:49:59;;;;;;;5.63;4.40;;;;;;;-145.18;100.00;46660.41;5028029;28;20065;-64
2023/08/27 04:52:25;;;;;;;9.00;4.70;;;;;;;-145.18;100.00;46633.06;4997039;28;20040;-64
2023/08/27 04:54:51;;;;;;;6.20;4.13;;;;;;;-145.18;100.00;46631.09;5024735;28;20049;-65
2023/08/27 04:57:16;;;;;;;6.50;3.70;;;;;;;-145.18;100.00;46631.09;5029666;28;20045;-64
2023/08/27 04:59:41;;;;;;;7.43;4.70;;;;;;;-145.18;100.00;46631.09;5031867;28;20477;-64
2023/08/27 05:02:07;;;;;;;6.10;4.00;;;;;;;-145.18;100.00;46629.13;5023705;28;20021;-64
2023/08/27 05:04:32;;;;;;;5.90;4.07;;;;;;;-145.18;100.00;46629.13;5030922;28;20112;-64
2023/08/27 05:06:57;;;;;;;8.40;3.80;;;;;;;-145.18;100.00;46627.19;5031404;28;20421;-64
2023/08/27 05:09:23;;;;;;;8.00;4.50;;;;;;;-145.18;100.00;46631.09;5031398;28;20107;-64
2023/08/27 05:11:48;;;;;;;4.37;3.67;;;;;;;-145.18;100.00;46629.13;5031753;28;20022;-64
2023/08/27 05:14:14;;;;;;;6.53;3.70;;;;;;;-145.18;100.00;46629.13;5031943;28;20029;-65
2023/08/27 05:16:39;;;;;;;8.30;4.07;;;;;;;-145.18;100.00;46631.09;5032078;28;20400;-64
2023/08/27 05:19:05;;;;;;;4.93;3.37;;;;;;;-145.18;100.00;46635.00;5031967;28;20029;-65
2023/08/27 05:21:30;;;;;;;5.60;3.63;;;;;;;-145.18;100.00;46636.94;5041406;28;20036;-65
2023/08/27 05:23:55;;;;;;;5.40;3.53;;;;;;;-145.18;100.00;46635.00;5018829;28;20430;-64
2023/08/27 05:26:21;;;;;;;4.93;3.07;;;;;;;-145.18;100.00;46635.00;5037381;28;20033;-64
2023/08/27 05:28:47;;;;;;;4.93;3.40;;;;;;;-145.18;100.00;46635.00;5035824;28;20033;-64
2023/08/27 05:31:12;;;;;;;6.43;3.83;;;;;;;-145.18;100.00;46638.91;5026332;28;20053;-64
2023/08/27 05:33:37;;;;;;;15.23;3.63;;;;;;;-145.18;100.00;46631.09;5031541;28;20112;-64
2023/08/27 05:36:03;;;;;;;6.80;3.60;;;;;;;-145.18;100.00;46633.06;5031610;28;20033;-64
2023/08/27 05:38:28;;;;;;;7.23;3.53;;;;;;;-145.18;100.00;46635.00;5031595;28;20021;-72
2023/08/27 05:40:53;;;;;;;5.50;3.57;;;;;;;-145.18;100.00;46633.06;5031490;28;20028;-73
2023/08/27 05:43:19;;;;;;;5.37;3.57;;;;;;;-145.18;100.00;46636.94;5031578;28;20030;-72
2023/08/27 05:45:44;;;;;;;9.13;3.53;;;;;;;-145.18;100.00;46636.94;5030907;28;20469;-72
2023/08/27 05:48:09;;;;;;;5.97;4.00;;;;;;;-145.18;100.00;46633.06;5030294;28;20042;-73
2023/08/27 05:50:36;;;;;;;6.30;3.73;;;;;;;-145.18;100.00;46636.94;5031250;28;20423;-73
2023/08/27 05:53:03;;;;;;;8.73;3.80;;;;;;;-145.18;100.00;46635.00;5028909;28;20116;-73
2023/08/27 05:55:29;;;;;;;7.83;3.80;;;;;;;-145.18;100.00;46635.00;5030463;28;20034;-73
2023/08/27 05:57:54;;;;;;;10.07;4.40;;;;;;;-145.18;100.00;46636.94;5030674;28;20049;-73
2023/08/27 06:00:20;;;;;;;12.33;4.07;;;;;;;-145.18;100.00;46633.06;5030843;28;20173;-72
2023/08/27 06:02:45;;;;;;;6.60;4.20;;;;;;;-145.18;100.00;46633.06;5028389;28;20041;-73
2023/08/27 06:05:11;;;;;;;12.23;4.63;;;;;;;-145.18;100.00;46631.09;5029712;28;20140;-72
2023/08/27 06:07:37;;;;;;;8.93;4.43;;;;;;;-145.18;100.00;46633.06;5029517;28;20029;-73
2023/08/27 06:10:02;;;;;;;5.43;3.63;;;;;;;-145.18;100.00;46635.00;5030716;28;20029;-73
2023/08/27 06:12:28;;;;;;;11.40;4.20;;;;;;;-145.18;100.00;46633.06;5031446;28;20032;-73
2023/08/27 06:14:53;;;;;;;7.07;3.80;;;;;;;-145.18;100.00;46631.09;5031082;28;20056;-73
2023/08/27 06:17:18;;;;;;;10.10;4.30;;;;;;;-145.18;100.00;46631.09;5030393;28;20040;-73
2023/08/27 06:19:44;;;;;;;9.03;4.13;;;;;;;-145.18;100.00;46633.06;5033407;28;20104;-73
2023/08/27 06:22:09;;;;;;;10.23;4.83;;;;;;;-145.18;100.00;46629.13;5034809;28;20037;-73
2023/08/27 06:24:34;;;;;;;9.57;4.83;;;;;;;-145.18;100.00;46629.13;5034807;28;20028;-73
2023/08/27 06:27:00;;;;;;;9.00;4.73;;;;;;;-145.18;100.00;46631.09;5031188;28;20037;-73
2023/08/27 06:29:25;;;;;;;11.83;4.70;;;;;;;-145.18;100.00;46627.19;5033347;28;20091;-73
2023/08/27 06:31:51;;;;;;;7.07;4.90;;;;;;;-145.18;100.00;46625.22;5032443;28;20113;-73
2023/08/27 06:34:16;;;;;;;10.30;4.70;;;;;;;-145.18;100.00;46625.22;5030146;28;20397;-73
2023/08/27 06:36:42;;;;;;;11.63;5.17;;;;;;;-145.18;100.00;46629.13;5048945;28;20116;-73
2023/08/27 06:39:08;;;;;;;7.43;5.33;;;;;;;-145.18;100.00;46623.28;5032210;28;20116;-73
2023/08/27 06:41:33;;;;;;;9.67;5.83;;;;;;;-145.18;100.00;46625.22;5046890;28;20468;-73
2023/08/27 06:43:59;;;;;;;11.20;5.13;;;;;;;-145.18;100.00;46619.38;5035708;28;20040;-73
2023/08/27 06:46:24;;;;;;;7.10;4.80;;;;;;;-145.18;100.00;46615.47;5033327;28;20107;-73
2023/08/27 06:48:49;;;;;;;9.73;5.97;;;;;;;-145.18;100.00;46621.31;5034614;28;20034;-73
2023/08/27 06:51:15;;;;;;;8.93;5.30;;;;;;;-145.18;100.00;46619.38;5029496;28;20033;-73
2023/08/27 06:53:40;;;;;;;11.13;6.27;;;;;;;-145.18;100.00;46617.41;5033500;28;20029;-73
2023/08/27 06:56:05;;;;;;;8.67;6.03;;;;;;;-145.18;100.00;46617.41;5032165;28;20701;-73
2023/08/27 06:58:31;;;;;;;10.90;6.60;;;;;;;-145.18;100.00;46617.41;5033238;28;20095;-73
2023/08/27 07:00:56;;;;;;;12.07;7.53;;;;;;;-145.18;100.00;46613.50;5033548;28;20057;-73
2023/08/27 07:03:22;;;;;;;14.77;6.53;;;;;;;-145.18;100.00;46617.41;5033351;28;20043;-73
2023/08/27 07:05:48;;;;;;;9.30;6.23;;;;;;;-145.18;100.00;46619.38;5033113;28;20488;-73
2023/08/27 07:08:14;;;;;;;10.07;6.30;;;;;;;-145.18;100.00;46627.19;5033631;28;20032;-73
2023/08/27 07:10:39;;;;;;;11.37;6.83;;;;;;;-145.18;100.00;46621.31;5035610;28;20024;-73
2023/08/27 07:13:05;;;;;;;16.77;6.97;;;;;;;-145.18;100.00;46625.22;5033577;28;20017;-73
2023/08/27 07:15:30;;;;;;;15.90;6.17;;;;;;;-145.18;100.00;46629.13;5033353;28;20751;-73
2023/08/27 07:17:56;;;;;;;10.77;6.27;;;;;;;-145.18;100.00;46629.13;5029725;28;20431;-73
2023/08/27 07:20:23;;;;;;;12.37;6.27;;;;;;;-145.18;100.00;46631.09;5029640;28;20500;-73
2023/08/27 07:22:48;;;;;;;14.83;6.43;;;;;;;-145.18;100.00;46635.00;5030950;28;20021;-73
2023/08/27 07:25:14;;;;;;;10.70;6.20;;;;;;;-145.18;100.00;46635.00;5031692;28;20106;-74
2023/08/27 07:27:39;;;;;;;9.43;6.83;;;;;;;-145.18;100.00;46636.94;5032863;28;20025;-73
2023/08/27 07:30:06;;;;;;;13.77;7.83;;;;;;;-145.18;100.00;46640.88;5033069;28;20109;-73
2023/08/27 07:32:31;;;;;;;11.20;7.87;;;;;;;-145.18;100.00;46642.81;5031442;28;20655;-73
2023/08/27 07:34:57;;;;;;;14.93;8.40;;;;;;;-145.18;100.00;46640.88;5031499;28;20113;-73
2023/08/27 07:37:22;;;;;;;14.27;8.93;;;;;;;-145.18;100.00;46640.88;5031214;28;20125;-73
2023/08/27 07:39:48;;;;;;;12.87;8.40;;;;;;;-145.18;100.00;46646.72;5030258;28;20056;-74
2023/08/27 07:42:13;;;;;;;13.87;7.90;;;;;;;-145.18;100.00;46650.63;5032165;28;20033;-73
2023/08/27 07:44:38;;;;;;;10.63;9.13;;;;;;;-145.18;100.00;46648.69;5035810;28;20469;-73
2023/08/27 07:47:04;;;;;;;9.83;8.07;;;;;;;-145.18;100.00;46650.63;5035911;28;20048;-73
2023/08/27 07:49:29;;;;;;;11.47;7.73;;;;;;;-145.18;100.00;46652.59;5033154;28;20037;-74
2023/08/27 07:51:55;;;;;;;12.73;7.93;;;;;;;-145.18;100.00;46660.41;5032563;28;20600;-73
2023/08/27 07:54:20;;;;;;;10.10;7.60;;;;;;;-145.18;100.00;46656.50;5032257;28;20040;-73
2023/08/27 07:56:45;;;;;;;10.00;7.50;;;;;;;-145.18;100.00;46658.44;5047309;28;20050;-73
2023/08/27 07:59:11;;;;;;;11.83;8.27;;;;;;;-145.18;100.00;46664.31;5032416;28;20186;-74
2023/08/27 08:01:36;;;;;;;9.50;7.77;;;;;;;-145.18;100.00;46668.22;5029884;28;20033;-74
2023/08/27 08:04:03;;;;;;;9.63;7.27;;;;;;;-145.18;100.00;46662.34;5023555;28;20165;-73
2023/08/27 08:06:28;;;;;;;11.93;7.07;;;;;;;-145.18;100.00;46668.22;5028103;28;20033;-73
2023/08/27 08:08:54;;;;;;;9.37;6.57;;;;;;;-145.18;100.00;46666.25;5030502;28;20032;-74
2023/08/27 08:11:19;;;;;;;10.17;6.90;;;;;;;-145.18;100.00;46668.22;5028914;28;20037;-73
2023/08/27 08:13:46;;;;;;;7.87;6.53;;;;;;;-145.18;100.00;46668.22;5030386;28;20033;-73
2023/08/27 08:16:11;;;;;;;9.40;6.13;;;;;;;-145.18;100.00;46672.13;5030550;28;20116;-73
2023/08/27 08:18:37;;;;;;;13.20;6.50;;;;;;;-145.18;100.00;46670.16;5030430;28;20175;-73
2023/08/27 08:21:02;;;;;;;10.53;6.63;;;;;;;-145.18;100.00;46666.25;5037607;28;20029;-73
2023/08/27 08:23:28;;;;;;;10.17;6.30;;;;;;;-145.18;100.00;46674.06;5033358;28;20405;-73
2023/08/27 08:25:54;;;;;;;7.67;6.03;;;;;;;-145.18;100.00;46672.13;5029113;28;20041;-73
2023/08/27 08:28:19;;;;;;;8.97;6.27;;;;;;;-145.18;100.00;46674.06;5036061;28;20116;-73
2023/08/27 08:30:49;;;;;;;8.93;6.60;;;;;;;-145.18;100.00;46672.13;5032257;28;20040;-73
2023/08/27 08:33:15;;;;;;;9.57;6.00;;;;;;;-145.18;100.00;46674.06;5031618;28;20021;-73
2023/08/27 08:35:42;;;;;;;8.63;5.73;;;;;;;-145.18;100.00;46679.94;5032547;28;20524;-73
2023/08/27 08:38:07;;;;;;;10.07;6.10;;;;;;;-145.18;100.00;46687.75;5030354;28;20052;-73
2023/08/27 08:40:44;;;;;;;11.33;5.83;;;;;;;-145.18;100.00;46689.69;5031364;28;20481;-73
2023/08/27 08:43:17;;;;;;;15.17;4.97;;;;;;;-145.18;100.00;46687.75;5029125;28;20025;-73
2023/08/27 08:46:10;;;;;;;5.57;5.07;;;;;;;-145.18;100.00;46687.75;5030437;28;20030;-73
2023/08/27 08:48:40;;;;;;;6.23;5.47;;;;;;;-145.18;100.00;46689.69;5028741;28;20037;-73
2023/08/27 08:51:07;;;;;;;3.07;2.20;;;;;;;-145.18;100.00;46689.69;5031528;28;20060;-73
2023/08/27 08:53:39;;;;;;;2.50;2.20;;;;;;;-145.18;100.00;46689.69;5028232;28;20030;-74
2023/08/27 08:56:07;;;;;;;2.80;2.40;;;;;;;-145.18;100.00;46687.75;5031326;28;20113;-73
2023/08/27 08:58:36;;;;;;;6.10;2.73;;;;;;;-145.18;100.00;46691.66;5030963;28;20535;-73
2023/08/27 09:01:04;;;;;;;6.50;3.83;;;;;;;-145.18;100.00;46687.75;5032701;28;20033;-73
2023/08/27 09:03:30;;;;;;;5.67;3.57;;;;;;;-145.18;100.00;46687.75;5029513;28;20029;-73
2023/08/27 09:05:57;;;;;;;5.23;3.67;;;;;;;-145.18;100.00;46683.84;5038876;28;20021;-73
2023/08/27 09:08:23;;;;;;;5.07;3.70;;;;;;;-145.18;100.00;46685.78;5028119;28;20535;-74
2023/08/27 09:10:49;;;;;;;3.80;3.07;;;;;;;-145.18;100.00;46687.75;5032187;28;20013;-74
2023/08/27 09:13:20;;;;;;;3.80;2.47;;;;;;;-145.18;100.00;46687.75;5030751;28;20056;-74
2023/08/27 09:15:46;;;;;;;6.03;2.20;;;;;;;-145.18;100.00;46593.97;5030688;28;20620;-73
2023/08/27 09:18:11;;;;;;;4.13;2.00;;;;;;;-145.18;100.00;46566.63;5030428;28;20033;-74
2023/08/27 09:20:37;;;;;;;5.10;2.33;;;;;;;-145.18;100.00;46570.53;5035457;28;20031;-73
2023/08/27 09:23:03;;;;;;;3.50;2.10;;;;;;;-145.18;100.00;46578.34;5030908;28;20056;-73
2023/08/27 09:25:29;;;;;;;3.77;1.70;;;;;;;-145.18;100.00;46576.41;5032925;28;20493;-74
2023/08/27 09:27:54;;;;;;;3.70;1.73;;;;;;;-145.18;100.00;46574.44;5033730;28;20037;-73
2023/08/27 09:30:22;;;;;;;3.87;2.30;;;;;;;-145.18;100.00;46560.78;5032777;28;20473;-73
2023/08/27 09:32:47;;;;;;;3.63;2.10;;;;;;;-145.18;100.00;46570.53;5022469;28;20075;-73
2023/08/27 09:35:13;;;;;;;6.43;2.50;;;;;;;-145.18;100.00;46586.16;5030269;28;20073;-73
2023/08/27 09:37:43;;;;;;;3.47;2.00;;;;;;;-145.18;100.00;46613.50;5028967;28;20032;-73
2023/08/27 09:40:10;;;;;;;4.00;2.30;;;;;;;-145.18;100.00;46619.38;5027631;28;20509;-73
2023/08/27 09:42:37;;;;;;;2.07;1.87;;;;;;;-145.18;100.00;46674.06;5029552;28;20021;-73
2023/08/27 09:45:04;;;;;;;3.77;1.70;;;;;;;-145.18;100.00;46658.44;5028273;28;20084;-73
2023/08/27 09:47:31;;;;;;;3.80;1.37;;;;;;;-145.18;100.00;46609.59;5028173;28;20038;-73
2023/08/27 09:49:56;;;;;;;2.07;1.13;;;;;;;-145.18;100.00;46578.34;5029491;28;20087;-73
2023/08/27 09:52:24;;;;;;;1.97;0.90;;;;;;;-145.18;100.00;46564.69;5026663;28;20042;-73
2023/08/27 09:54:50;;;;;;;5.97;1.20;;;;;;;-145.18;100.00;46582.25;5031756;28;20025;-87
2023/08/27 09:57:20;;;;;;;3.07;0.77;;;;;;;-145.18;100.00;46593.97;5030588;28;20504;-74
2023/08/27 09:59:46;;;;;;;3.83;0.90;;;;;;;-145.18;100.00;46586.16;5031512;28;20052;-73
2023/08/27 10:02:16;;;;;;;1.50;0.63;;;;;;;-145.18;100.00;46572.50;5033336;28;20030;-72
2023/08/27 10:05:09;;;;;;;1.07;0.70;;;;;;;-145.18;100.00;46572.50;5028689;28;20033;-72
2023/08/27 10:07:34;;;;;;;2.87;0.90;;;;;;;-145.18;100.00;46681.88;5036216;28;20042;-71
2023/08/27 10:10:02;;;;;;;7.60;1.40;;;;;;;-145.18;100.00;46697.50;5032404;28;20022;-71
2023/08/27 10:12:29;;;;;;;14.80;1.80;;;;;;;-145.18;100.00;46689.69;5033848;28;20040;-71
2023/08/27 10:14:55;;;;;;;8.27;1.50;;;;;;;-145.18;100.00;46685.78;5033756;28;20057;-74
2023/08/27 10:17:22;;;;;;;3.60;1.37;;;;;;;-145.18;100.00;46676.03;5036986;28;20091;-80
2023/08/27 10:19:48;;;;;;;4.90;1.50;;;;;;;-145.18;100.00;46672.13;5037226;28;20037;-64
2023/08/27 10:22:15;;;;;;;8.40;2.00;;;;;;;-145.18;100.00;46660.41;5037083;28;20505;-64
2023/08/27 10:24:41;;;;;;;6.27;2.20;;;;;;;-145.18;100.00;46654.53;5034065;28;20386;-64
2023/08/27 10:27:07;;;;;;;5.63;2.17;;;;;;;-145.18;100.00;46648.69;5033923;28;20083;-65
2023/08/27 10:29:34;;;;;;;7.67;2.30;;;;;;;-145.18;100.00;46644.78;5034410;28;20418;-65
2023/08/27 10:31:59;;;;;;;4.43;2.30;;;;;;;-145.18;100.00;46644.78;5035048;28;20033;-65
2023/08/27 10:34:28;;;;;;;3.10;2.10;;;;;;;-145.18;100.00;46640.88;5035669;28;20485;-64
2023/08/27 10:36:55;;;;;;;4.07;1.80;;;;;;;-145.18;100.00;46640.88;5034448;28;20060;-64
2023/08/27 10:39:25;;;;;;;6.00;1.70;;;;;;;-145.18;100.00;46642.81;5032517;28;20021;-64
2023/08/27 10:41:51;;;;;;;2.87;1.23;;;;;;;-145.18;100.00;46644.78;5032572;28;20029;-64
2023/08/27 10:44:19;;;;;;;2.83;1.30;;;;;;;-145.18;100.00;46646.72;5035429;28;20029;-64
2023/08/27 10:47:09;;;;;;;1.77;1.30;;;;;;;-145.18;100.00;46648.69;5030475;28;20482;-64
2023/08/27 10:49:38;;;;;;;1.97;0.77;;;;;;;-145.18;100.00;46650.63;5031261;28;20322;-64
2023/08/27 10:52:51;;;;;;;4.67;1.00;;;;;;;-145.18;100.00;46646.72;5032260;28;20025;-64
2023/08/27 10:55:21;;;;;;;1.37;0.70;;;;;;;-145.18;100.00;46646.72;5031271;28;20053;-64
2023/08/27 10:57:46;;;;;;;4.13;0.70;;;;;;;-145.18;100.00;46646.72;5033435;28;20065;-64
2023/08/27 11:00:12;;;;;;;3.60;0.80;;;;;;;-145.18;100.00;46650.63;5035266;28;20033;-64
2023/08/27 11:03:13;;;;;;;2.00;0.63;;;;;;;-145.18;100.00;46648.69;5041589;28;20029;-63
2023/08/27 11:05:39;;;;;;;1.27;0.60;;;;;;;-145.18;100.00;46648.69;5026095;28;20100;-64